sensor_id;sensor_type;location;lat;lon;timestamp;P1;durP1;ratioP1;P2;durP2;ratioP2
18228;SDS011;9239;50.932;3.142;2023-04-24T00:01:03;7.47;;;6.67;;
18228;SDS011;9239;50.932;3.142;2023-04-24T00:03:32;7.17;;;6.47;;
18228;SDS011;9239;50.932;3.142;2023-04-24T00:06:01;8.17;;;6.97;;
18228;SDS011;9239;50.932;3.142;2023-04-24T00:08:28;7.90;;;5.87;;
18228;SDS011;9239;50.932;3.142;2023-04-24T00:10:55;9.40;;;6.97;;
18228;SDS011;9239;50.932;3.142;2023-04-24T00:13:22;7.07;;;6.37;;
18228;SDS011;9239;50.932;3.142;2023-04-24T00:15:49;6.87;;;6.27;;
18228;SDS011;9239;50.932;3.142;2023-04-24T00:18:15;6.67;;;5.93;;
18228;SDS011;9239;50.932;3.142;2023-04-24T00:20:42;6.70;;;6.10;;
18228;SDS011;9239;50.932;3.142;2023-04-24T00:23:11;7.13;;;5.57;;
18228;SDS011;9239;50.932;3.142;2023-04-24T00:25:38;6.70;;;5.93;;
18228;SDS011;9239;50.932;3.142;2023-04-24T00:28:05;6.50;;;5.90;;
18228;SDS011;9239;50.932;3.142;2023-04-24T00:30:32;7.30;;;6.20;;
18228;SDS011;9239;50.932;3.142;2023-04-24T00:32:59;7.20;;;6.50;;
18228;SDS011;9239;50.932;3.142;2023-04-24T00:35:26;7.00;;;6.40;;
18228;SDS011;9239;50.932;3.142;2023-04-24T00:37:53;7.30;;;6.60;;
18228;SDS011;9239;50.932;3.142;2023-04-24T00:40:21;7.20;;;6.50;;
18228;SDS011;9239;50.932;3.142;2023-04-24T00:42:48;7.43;;;6.63;;
18228;SDS011;9239;50.932;3.142;2023-04-24T00:45:15;8.03;;;7.23;;
18228;SDS011;9239;50.932;3.142;2023-04-24T00:47:43;9.53;;;8.57;;
18228;SDS011;9239;50.932;3.142;2023-04-24T00:50:11;10.37;;;9.20;;
18228;SDS011;9239;50.932;3.142;2023-04-24T00:52:40;10.10;;;9.00;;
18228;SDS011;9239;50.932;3.142;2023-04-24T00:55:07;11.87;;;10.23;;
18228;SDS011;9239;50.932;3.142;2023-04-24T00:57:36;10.97;;;9.97;;
18228;SDS011;9239;50.932;3.142;2023-04-24T01:00:04;11.37;;;9.73;;
18228;SDS011;9239;50.932;3.142;2023-04-24T01:02:36;12.17;;;10.90;;
18228;SDS011;9239;50.932;3.142;2023-04-24T01:05:05;12.73;;;10.43;;
18228;SDS011;9239;50.932;3.142;2023-04-24T01:07:33;12.00;;;10.77;;
18228;SDS011;9239;50.932;3.142;2023-04-24T01:10:01;12.43;;;11.13;;
18228;SDS011;9239;50.932;3.142;2023-04-24T01:12:29;13.87;;;12.43;;
18228;SDS011;9239;50.932;3.142;2023-04-24T01:14:58;13.60;;;12.30;;
18228;SDS011;9239;50.932;3.142;2023-04-24T01:17:25;14.17;;;12.70;;
18228;SDS011;9239;50.932;3.142;2023-04-24T01:19:52;12.77;;;11.53;;
18228;SDS011;9239;50.932;3.142;2023-04-24T01:22:23;13.80;;;12.27;;
18228;SDS011;9239;50.932;3.142;2023-04-24T01:24:50;14.30;;;12.80;;
18228;SDS011;9239;50.932;3.142;2023-04-24T01:27:18;13.27;;;11.60;;
18228;SDS011;9239;50.932;3.142;2023-04-24T01:29:45;14.10;;;12.60;;
18228;SDS011;9239;50.932;3.142;2023-04-24T01:32:14;14.17;;;12.03;;
18228;SDS011;9239;50.932;3.142;2023-04-24T01:34:41;14.90;;;13.30;;
18228;SDS011;9239;50.932;3.142;2023-04-24T01:37:09;15.63;;;13.47;;
18228;SDS011;9239;50.932;3.142;2023-04-24T01:39:37;17.63;;;14.00;;
18228;SDS011;9239;50.932;3.142;2023-04-24T01:42:04;16.37;;;13.97;;
18228;SDS011;9239;50.932;3.142;2023-04-24T01:44:31;16.30;;;13.60;;
18228;SDS011;9239;50.932;3.142;2023-04-24T01:47:00;16.23;;;13.57;;
18228;SDS011;9239;50.932;3.142;2023-04-24T01:49:27;16.63;;;14.07;;
18228;SDS011;9239;50.932;3.142;2023-04-24T01:51:55;16.30;;;13.77;;
18228;SDS011;9239;50.932;3.142;2023-04-24T01:54:22;15.80;;;13.87;;
18228;SDS011;9239;50.932;3.142;2023-04-24T01:56:51;20.37;;;14.37;;
18228;SDS011;9239;50.932;3.142;2023-04-24T01:59:18;15.87;;;12.93;;
18228;SDS011;9239;50.932;3.142;2023-04-24T02:01:47;15.70;;;11.87;;
18228;SDS011;9239;50.932;3.142;2023-04-24T02:04:14;15.23;;;11.63;;
18228;SDS011;9239;50.932;3.142;2023-04-24T02:06:41;13.10;;;10.70;;
18228;SDS011;9239;50.932;3.142;2023-04-24T02:09:08;17.23;;;12.03;;
18228;SDS011;9239;50.932;3.142;2023-04-24T02:11:35;14.93;;;11.40;;
18228;SDS011;9239;50.932;3.142;2023-04-24T02:14:04;12.23;;;9.67;;
18228;SDS011;9239;50.932;3.142;2023-04-24T02:16:31;9.90;;;8.90;;
18228;SDS011;9239;50.932;3.142;2023-04-24T02:18:58;12.93;;;9.20;;
18228;SDS011;9239;50.932;3.142;2023-04-24T02:21:25;14.17;;;7.93;;
18228;SDS011;9239;50.932;3.142;2023-04-24T02:23:53;10.77;;;7.63;;
18228;SDS011;9239;50.932;3.142;2023-04-24T02:26:20;8.80;;;6.07;;
18228;SDS011;9239;50.932;3.142;2023-04-24T02:28:47;8.60;;;5.77;;
18228;SDS011;9239;50.932;3.142;2023-04-24T02:31:15;6.20;;;5.60;;
18228;SDS011;9239;50.932;3.142;2023-04-24T02:33:42;9.53;;;6.47;;
18228;SDS011;9239;50.932;3.142;2023-04-24T02:36:09;10.27;;;6.23;;
18228;SDS011;9239;50.932;3.142;2023-04-24T02:38:36;8.07;;;6.40;;
18228;SDS011;9239;50.932;3.142;2023-04-24T02:41:03;10.63;;;8.43;;
18228;SDS011;9239;50.932;3.142;2023-04-24T02:43:31;10.07;;;8.83;;
18228;SDS011;9239;50.932;3.142;2023-04-24T02:45:58;14.83;;;10.80;;
18228;SDS011;9239;50.932;3.142;2023-04-24T02:48:26;11.70;;;9.87;;
18228;SDS011;9239;50.932;3.142;2023-04-24T02:50:53;18.43;;;10.43;;
18228;SDS011;9239;50.932;3.142;2023-04-24T02:53:21;12.83;;;10.87;;
18228;SDS011;9239;50.932;3.142;2023-04-24T02:55:48;16.67;;;13.13;;
18228;SDS011;9239;50.932;3.142;2023-04-24T02:58:15;16.13;;;12.00;;
18228;SDS011;9239;50.932;3.142;2023-04-24T03:00:42;16.30;;;12.67;;
18228;SDS011;9239;50.932;3.142;2023-04-24T03:03:09;20.23;;;13.60;;
18228;SDS011;9239;50.932;3.142;2023-04-24T03:05:38;18.90;;;12.90;;
18228;SDS011;9239;50.932;3.142;2023-04-24T03:08:05;19.67;;;13.87;;
18228;SDS011;9239;50.932;3.142;2023-04-24T03:10:32;17.83;;;14.90;;
18228;SDS011;9239;50.932;3.142;2023-04-24T03:12:59;17.63;;;13.73;;
18228;SDS011;9239;50.932;3.142;2023-04-24T03:15:26;16.87;;;14.13;;
18228;SDS011;9239;50.932;3.142;2023-04-24T03:17:53;21.17;;;15.07;;
18228;SDS011;9239;50.932;3.142;2023-04-24T03:20:20;23.43;;;14.77;;
18228;SDS011;9239;50.932;3.142;2023-04-24T03:22:48;18.53;;;15.57;;
18228;SDS011;9239;50.932;3.142;2023-04-24T03:25:15;19.83;;;14.53;;
18228;SDS011;9239;50.932;3.142;2023-04-24T03:27:42;19.83;;;15.17;;
18228;SDS011;9239;50.932;3.142;2023-04-24T03:30:10;17.97;;;14.57;;
18228;SDS011;9239;50.932;3.142;2023-04-24T03:32:37;18.13;;;13.90;;
18228;SDS011;9239;50.932;3.142;2023-04-24T03:35:04;19.27;;;14.10;;
18228;SDS011;9239;50.932;3.142;2023-04-24T03:37:32;19.43;;;14.20;;
18228;SDS011;9239;50.932;3.142;2023-04-24T03:40:01;18.40;;;14.37;;
18228;SDS011;9239;50.932;3.142;2023-04-24T03:42:28;18.47;;;12.77;;
18228;SDS011;9239;50.932;3.142;2023-04-24T03:44:55;19.90;;;13.70;;
18228;SDS011;9239;50.932;3.142;2023-04-24T03:47:22;17.37;;;13.37;;
18228;SDS011;9239;50.932;3.142;2023-04-24T03:49:49;20.93;;;14.13;;
18228;SDS011;9239;50.932;3.142;2023-04-24T03:52:16;17.93;;;12.60;;
18228;SDS011;9239;50.932;3.142;2023-04-24T03:54:43;20.13;;;12.13;;
18228;SDS011;9239;50.932;3.142;2023-04-24T03:57:12;18.30;;;11.93;;
18228;SDS011;9239;50.932;3.142;2023-04-24T03:59:38;13.50;;;11.97;;
18228;SDS011;9239;50.932;3.142;2023-04-24T04:02:05;14.33;;;11.33;;
18228;SDS011;9239;50.932;3.142;2023-04-24T04:04:32;18.37;;;11.90;;
18228;SDS011;9239;50.932;3.142;2023-04-24T04:06:59;15.90;;;11.73;;
18228;SDS011;9239;50.932;3.142;2023-04-24T04:09:28;15.50;;;11.80;;
18228;SDS011;9239;50.932;3.142;2023-04-24T04:11:55;19.70;;;11.77;;
18228;SDS011;9239;50.932;3.142;2023-04-24T04:14:23;15.73;;;10.37;;
18228;SDS011;9239;50.932;3.142;2023-04-24T04:16:50;14.17;;;10.77;;
18228;SDS011;9239;50.932;3.142;2023-04-24T04:19:17;17.13;;;10.57;;
18228;SDS011;9239;50.932;3.142;2023-04-24T04:21:44;17.80;;;11.63;;
18228;SDS011;9239;50.932;3.142;2023-04-24T04:24:15;16.70;;;12.63;;
18228;SDS011;9239;50.932;3.142;2023-04-24T04:26:42;17.47;;;11.77;;
18228;SDS011;9239;50.932;3.142;2023-04-24T04:29:12;17.13;;;11.97;;
18228;SDS011;9239;50.932;3.142;2023-04-24T04:31:41;18.47;;;11.90;;
18228;SDS011;9239;50.932;3.142;2023-04-24T04:34:08;14.73;;;12.43;;
18228;SDS011;9239;50.932;3.142;2023-04-24T04:36:36;16.97;;;12.73;;
18228;SDS011;9239;50.932;3.142;2023-04-24T04:39:05;16.00;;;12.80;;
18228;SDS011;9239;50.932;3.142;2023-04-24T04:41:32;17.67;;;13.17;;
18228;SDS011;9239;50.932;3.142;2023-04-24T04:44:00;18.57;;;13.07;;
18228;SDS011;9239;50.932;3.142;2023-04-24T04:46:29;22.23;;;14.07;;
18228;SDS011;9239;50.932;3.142;2023-04-24T04:49:00;16.40;;;13.87;;
18228;SDS011;9239;50.932;3.142;2023-04-24T04:51:27;18.43;;;12.03;;
18228;SDS011;9239;50.932;3.142;2023-04-24T04:53:55;13.00;;;11.03;;
18228;SDS011;9239;50.932;3.142;2023-04-24T04:56:22;17.87;;;12.87;;
18228;SDS011;9239;50.932;3.142;2023-04-24T04:58:49;17.47;;;13.27;;
18228;SDS011;9239;50.932;3.142;2023-04-24T05:01:16;21.40;;;12.97;;
18228;SDS011;9239;50.932;3.142;2023-04-24T05:03:43;23.43;;;15.30;;
18228;SDS011;9239;50.932;3.142;2023-04-24T05:06:11;15.37;;;12.40;;
18228;SDS011;9239;50.932;3.142;2023-04-24T05:08:38;15.63;;;12.77;;
18228;SDS011;9239;50.932;3.142;2023-04-24T05:11:05;19.23;;;14.00;;
18228;SDS011;9239;50.932;3.142;2023-04-24T05:13:33;19.43;;;14.57;;
18228;SDS011;9239;50.932;3.142;2023-04-24T05:16:00;15.20;;;12.37;;
18228;SDS011;9239;50.932;3.142;2023-04-24T05:18:27;21.53;;;15.33;;
18228;SDS011;9239;50.932;3.142;2023-04-24T05:20:54;27.17;;;18.73;;
18228;SDS011;9239;50.932;3.142;2023-04-24T05:23:22;18.17;;;12.93;;
18228;SDS011;9239;50.932;3.142;2023-04-24T05:25:50;22.30;;;17.63;;
18228;SDS011;9239;50.932;3.142;2023-04-24T05:28:17;20.97;;;15.37;;
18228;SDS011;9239;50.932;3.142;2023-04-24T05:30:44;21.23;;;15.27;;
18228;SDS011;9239;50.932;3.142;2023-04-24T05:33:11;19.70;;;14.50;;
18228;SDS011;9239;50.932;3.142;2023-04-24T05:35:39;22.23;;;16.23;;
18228;SDS011;9239;50.932;3.142;2023-04-24T05:38:10;20.97;;;14.97;;
18228;SDS011;9239;50.932;3.142;2023-04-24T05:40:39;19.50;;;16.23;;
18228;SDS011;9239;50.932;3.142;2023-04-24T05:43:08;17.40;;;15.03;;
18228;SDS011;9239;50.932;3.142;2023-04-24T05:45:35;22.17;;;16.60;;
18228;SDS011;9239;50.932;3.142;2023-04-24T05:48:02;21.00;;;15.13;;
18228;SDS011;9239;50.932;3.142;2023-04-24T05:50:29;22.83;;;15.10;;
18228;SDS011;9239;50.932;3.142;2023-04-24T05:52:56;19.20;;;14.27;;
18228;SDS011;9239;50.932;3.142;2023-04-24T05:55:24;24.10;;;15.40;;
18228;SDS011;9239;50.932;3.142;2023-04-24T05:57:53;16.93;;;13.50;;
18228;SDS011;9239;50.932;3.142;2023-04-24T06:00:20;17.20;;;11.40;;
18228;SDS011;9239;50.932;3.142;2023-04-24T06:02:47;16.50;;;11.50;;
18228;SDS011;9239;50.932;3.142;2023-04-24T06:05:14;15.80;;;11.20;;
18228;SDS011;9239;50.932;3.142;2023-04-24T06:07:41;15.33;;;11.53;;
18228;SDS011;9239;50.932;3.142;2023-04-24T06:10:12;20.90;;;11.67;;
18228;SDS011;9239;50.932;3.142;2023-04-24T06:12:39;13.13;;;10.23;;
18228;SDS011;9239;50.932;3.142;2023-04-24T06:15:09;13.03;;;10.60;;
18228;SDS011;9239;50.932;3.142;2023-04-24T06:17:36;16.13;;;9.30;;
18228;SDS011;9239;50.932;3.142;2023-04-24T06:20:04;15.07;;;10.23;;
18228;SDS011;9239;50.932;3.142;2023-04-24T06:22:33;13.73;;;9.97;;
18228;SDS011;9239;50.932;3.142;2023-04-24T06:25:00;13.17;;;9.90;;
18228;SDS011;9239;50.932;3.142;2023-04-24T06:27:27;13.77;;;10.40;;
18228;SDS011;9239;50.932;3.142;2023-04-24T06:29:54;13.70;;;9.53;;
18228;SDS011;9239;50.932;3.142;2023-04-24T06:32:23;17.60;;;11.93;;
18228;SDS011;9239;50.932;3.142;2023-04-24T06:34:51;11.47;;;8.77;;
18228;SDS011;9239;50.932;3.142;2023-04-24T06:37:18;15.27;;;9.87;;
18228;SDS011;9239;50.932;3.142;2023-04-24T06:39:46;14.23;;;8.60;;
18228;SDS011;9239;50.932;3.142;2023-04-24T06:42:13;11.43;;;8.77;;
18228;SDS011;9239;50.932;3.142;2023-04-24T06:44:40;20.00;;;11.60;;
18228;SDS011;9239;50.932;3.142;2023-04-24T06:47:07;13.97;;;9.57;;
18228;SDS011;9239;50.932;3.142;2023-04-24T06:49:36;12.90;;;10.80;;
18228;SDS011;9239;50.932;3.142;2023-04-24T06:52:03;12.90;;;10.57;;
18228;SDS011;9239;50.932;3.142;2023-04-24T06:54:31;12.60;;;8.07;;
18228;SDS011;9239;50.932;3.142;2023-04-24T06:56:59;17.37;;;9.13;;
18228;SDS011;9239;50.932;3.142;2023-04-24T06:59:27;12.00;;;8.90;;
18228;SDS011;9239;50.932;3.142;2023-04-24T07:01:54;14.33;;;8.40;;
18228;SDS011;9239;50.932;3.142;2023-04-24T07:04:22;10.20;;;7.17;;
18228;SDS011;9239;50.932;3.142;2023-04-24T07:06:51;13.73;;;7.33;;
18228;SDS011;9239;50.932;3.142;2023-04-24T07:09:20;11.70;;;7.60;;
18228;SDS011;9239;50.932;3.142;2023-04-24T07:11:49;8.67;;;6.77;;
18228;SDS011;9239;50.932;3.142;2023-04-24T07:14:16;15.50;;;7.30;;
18228;SDS011;9239;50.932;3.142;2023-04-24T07:16:43;11.07;;;6.87;;
18228;SDS011;9239;50.932;3.142;2023-04-24T07:19:11;10.53;;;6.20;;
18228;SDS011;9239;50.932;3.142;2023-04-24T07:21:38;9.47;;;6.40;;
18228;SDS011;9239;50.932;3.142;2023-04-24T07:24:07;9.47;;;6.50;;
18228;SDS011;9239;50.932;3.142;2023-04-24T07:26:36;12.63;;;7.73;;
18228;SDS011;9239;50.932;3.142;2023-04-24T07:29:04;13.57;;;6.10;;
18228;SDS011;9239;50.932;3.142;2023-04-24T07:31:31;11.90;;;6.13;;
18228;SDS011;9239;50.932;3.142;2023-04-24T07:33:58;7.83;;;5.60;;
18228;SDS011;9239;50.932;3.142;2023-04-24T07:36:25;10.30;;;6.00;;
18228;SDS011;9239;50.932;3.142;2023-04-24T07:38:53;10.33;;;5.80;;
18228;SDS011;9239;50.932;3.142;2023-04-24T07:41:22;10.97;;;6.10;;
18228;SDS011;9239;50.932;3.142;2023-04-24T07:43:50;8.33;;;5.37;;
18228;SDS011;9239;50.932;3.142;2023-04-24T07:46:17;13.83;;;6.17;;
18228;SDS011;9239;50.932;3.142;2023-04-24T07:48:44;10.00;;;5.73;;
18228;SDS011;9239;50.932;3.142;2023-04-24T07:51:13;10.23;;;5.50;;
18228;SDS011;9239;50.932;3.142;2023-04-24T07:53:40;13.67;;;5.33;;
18228;SDS011;9239;50.932;3.142;2023-04-24T07:56:07;6.83;;;4.90;;
18228;SDS011;9239;50.932;3.142;2023-04-24T07:58:35;8.80;;;5.97;;
18228;SDS011;9239;50.932;3.142;2023-04-24T08:01:02;7.43;;;5.20;;
18228;SDS011;9239;50.932;3.142;2023-04-24T08:03:29;8.77;;;5.43;;
18228;SDS011;9239;50.932;3.142;2023-04-24T08:05:56;8.47;;;5.80;;
18228;SDS011;9239;50.932;3.142;2023-04-24T08:08:23;11.20;;;6.47;;
18228;SDS011;9239;50.932;3.142;2023-04-24T08:10:51;7.57;;;6.23;;
18228;SDS011;9239;50.932;3.142;2023-04-24T08:13:18;9.47;;;6.57;;
18228;SDS011;9239;50.932;3.142;2023-04-24T08:15:46;10.27;;;6.37;;
18228;SDS011;9239;50.932;3.142;2023-04-24T08:18:13;10.70;;;5.73;;
18228;SDS011;9239;50.932;3.142;2023-04-24T08:20:40;9.97;;;6.27;;
18228;SDS011;9239;50.932;3.142;2023-04-24T08:23:07;12.07;;;6.80;;
18228;SDS011;9239;50.932;3.142;2023-04-24T08:25:34;8.40;;;5.80;;
18228;SDS011;9239;50.932;3.142;2023-04-24T08:28:02;7.97;;;5.70;;
18228;SDS011;9239;50.932;3.142;2023-04-24T08:30:29;10.67;;;6.10;;
18228;SDS011;9239;50.932;3.142;2023-04-24T08:32:58;9.63;;;6.40;;
18228;SDS011;9239;50.932;3.142;2023-04-24T08:35:25;14.20;;;7.43;;
18228;SDS011;9239;50.932;3.142;2023-04-24T08:37:52;9.27;;;6.93;;
18228;SDS011;9239;50.932;3.142;2023-04-24T08:40:21;9.97;;;6.70;;
18228;SDS011;9239;50.932;3.142;2023-04-24T08:42:54;11.83;;;7.00;;
18228;SDS011;9239;50.932;3.142;2023-04-24T08:45:22;9.40;;;7.57;;
18228;SDS011;9239;50.932;3.142;2023-04-24T08:47:49;10.87;;;7.57;;
18228;SDS011;9239;50.932;3.142;2023-04-24T08:50:19;12.57;;;7.40;;
18228;SDS011;9239;50.932;3.142;2023-04-24T08:52:47;10.43;;;7.93;;
18228;SDS011;9239;50.932;3.142;2023-04-24T08:55:18;7.87;;;6.97;;
18228;SDS011;9239;50.932;3.142;2023-04-24T08:57:50;8.63;;;7.30;;
18228;SDS011;9239;50.932;3.142;2023-04-24T09:00:19;11.77;;;8.17;;
18228;SDS011;9239;50.932;3.142;2023-04-24T09:02:47;11.00;;;8.50;;
18228;SDS011;9239;50.932;3.142;2023-04-24T09:05:16;13.03;;;8.33;;
18228;SDS011;9239;50.932;3.142;2023-04-24T09:07:47;11.50;;;7.53;;
18228;SDS011;9239;50.932;3.142;2023-04-24T09:10:16;11.07;;;8.00;;
18228;SDS011;9239;50.932;3.142;2023-04-24T09:12:43;13.47;;;8.93;;
18228;SDS011;9239;50.932;3.142;2023-04-24T09:15:11;10.23;;;8.13;;
18228;SDS011;9239;50.932;3.142;2023-04-24T09:17:38;10.77;;;7.83;;
18228;SDS011;9239;50.932;3.142;2023-04-24T09:20:05;16.17;;;9.47;;
18228;SDS011;9239;50.932;3.142;2023-04-24T09:22:33;12.17;;;8.80;;
18228;SDS011;9239;50.932;3.142;2023-04-24T09:25:06;18.67;;;9.73;;
18228;SDS011;9239;50.932;3.142;2023-04-24T09:27:34;11.97;;;8.90;;
18228;SDS011;9239;50.932;3.142;2023-04-24T09:30:02;8.90;;;8.00;;
18228;SDS011;9239;50.932;3.142;2023-04-24T09:32:29;11.00;;;7.87;;
18228;SDS011;9239;50.932;3.142;2023-04-24T09:35:09;8.90;;;8.00;;
18228;SDS011;9239;50.932;3.142;2023-04-24T09:37:38;10.00;;;8.80;;
18228;SDS011;9239;50.932;3.142;2023-04-24T09:40:12;12.20;;;9.23;;
18228;SDS011;9239;50.932;3.142;2023-04-24T09:42:43;8.30;;;7.43;;
18228;SDS011;9239;50.932;3.142;2023-04-24T09:45:11;8.73;;;7.60;;
18228;SDS011;9239;50.932;3.142;2023-04-24T09:47:38;9.90;;;7.07;;
18228;SDS011;9239;50.932;3.142;2023-04-24T09:50:10;8.33;;;5.87;;
18228;SDS011;9239;50.932;3.142;2023-04-24T09:52:45;9.00;;;7.87;;
18228;SDS011;9239;50.932;3.142;2023-04-24T09:55:15;10.60;;;7.47;;
18228;SDS011;9239;50.932;3.142;2023-04-24T09:57:50;8.53;;;5.90;;
18228;SDS011;9239;50.932;3.142;2023-04-24T10:00:18;8.50;;;6.27;;
18228;SDS011;9239;50.932;3.142;2023-04-24T10:02:51;7.73;;;5.10;;
18228;SDS011;9239;50.932;3.142;2023-04-24T10:05:23;8.27;;;5.77;;
18228;SDS011;9239;50.932;3.142;2023-04-24T10:07:51;9.13;;;6.90;;
18228;SDS011;9239;50.932;3.142;2023-04-24T10:10:23;8.70;;;6.60;;
18228;SDS011;9239;50.932;3.142;2023-04-24T10:12:50;8.97;;;5.67;;
18228;SDS011;9239;50.932;3.142;2023-04-24T10:15:18;9.10;;;6.30;;
18228;SDS011;9239;50.932;3.142;2023-04-24T10:17:46;7.77;;;6.73;;
18228;SDS011;9239;50.932;3.142;2023-04-24T10:20:17;9.03;;;7.27;;
18228;SDS011;9239;50.932;3.142;2023-04-24T10:22:46;10.10;;;7.70;;
18228;SDS011;9239;50.932;3.142;2023-04-24T10:25:16;9.63;;;6.70;;
18228;SDS011;9239;50.932;3.142;2023-04-24T10:27:46;8.33;;;5.87;;
18228;SDS011;9239;50.932;3.142;2023-04-24T10:30:15;8.03;;;7.23;;
18228;SDS011;9239;50.932;3.142;2023-04-24T10:32:42;9.10;;;6.90;;
18228;SDS011;9239;50.932;3.142;2023-04-24T10:35:10;9.63;;;6.23;;
18228;SDS011;9239;50.932;3.142;2023-04-24T10:37:40;6.87;;;5.93;;
18228;SDS011;9239;50.932;3.142;2023-04-24T10:40:10;7.03;;;6.23;;
18228;SDS011;9239;50.932;3.142;2023-04-24T10:42:42;7.53;;;6.27;;
18228;SDS011;9239;50.932;3.142;2023-04-24T10:45:17;7.20;;;6.50;;
18228;SDS011;9239;50.932;3.142;2023-04-24T10:47:53;8.63;;;5.67;;
18228;SDS011;9239;50.932;3.142;2023-04-24T10:50:23;5.57;;;5.00;;
18228;SDS011;9239;50.932;3.142;2023-04-24T10:52:52;7.13;;;5.20;;
18228;SDS011;9239;50.932;3.142;2023-04-24T10:55:39;7.00;;;4.43;;
18228;SDS011;9239;50.932;3.142;2023-04-24T10:58:08;6.47;;;5.10;;
18228;SDS011;9239;50.932;3.142;2023-04-24T11:00:38;6.20;;;5.60;;
18228;SDS011;9239;50.932;3.142;2023-04-24T11:03:06;6.60;;;4.80;;
18228;SDS011;9239;50.932;3.142;2023-04-24T11:05:51;5.07;;;4.57;;
18228;SDS011;9239;50.932;3.142;2023-04-24T11:08:23;7.00;;;4.83;;
18228;SDS011;9239;50.932;3.142;2023-04-24T11:10:56;7.97;;;5.60;;
18228;SDS011;9239;50.932;3.142;2023-04-24T11:13:31;7.60;;;5.50;;
18228;SDS011;9239;50.932;3.142;2023-04-24T11:16:41;6.80;;;5.90;;
18228;SDS011;9239;50.932;3.142;2023-04-24T11:19:17;6.13;;;5.50;;
18228;SDS011;9239;50.932;3.142;2023-04-24T11:21:47;6.33;;;5.37;;
18228;SDS011;9239;50.932;3.142;2023-04-24T11:24:24;6.40;;;5.77;;
18228;SDS011;9239;50.932;3.142;2023-04-24T11:26:56;7.10;;;5.03;;
18228;SDS011;9239;50.932;3.142;2023-04-24T11:29:37;8.97;;;5.07;;
18228;SDS011;9239;50.932;3.142;2023-04-24T11:32:16;6.47;;;5.10;;
18228;SDS011;9239;50.932;3.142;2023-04-24T11:34:48;6.90;;;5.07;;
18228;SDS011;9239;50.932;3.142;2023-04-24T11:37:17;4.50;;;3.80;;
18228;SDS011;9239;50.932;3.142;2023-04-24T11:39:44;4.83;;;3.40;;
18228;SDS011;9239;50.932;3.142;2023-04-24T11:42:12;5.03;;;3.27;;
18228;SDS011;9239;50.932;3.142;2023-04-24T11:44:41;6.30;;;3.40;;
18228;SDS011;9239;50.932;3.142;2023-04-24T11:47:09;5.43;;;3.27;;
18228;SDS011;9239;50.932;3.142;2023-04-24T11:49:37;5.07;;;3.60;;
18228;SDS011;9239;50.932;3.142;2023-04-24T11:52:04;3.53;;;3.23;;
18228;SDS011;9239;50.932;3.142;2023-04-24T11:54:32;5.33;;;3.40;;
18228;SDS011;9239;50.932;3.142;2023-04-24T11:56:59;6.83;;;4.57;;
18228;SDS011;9239;50.932;3.142;2023-04-24T11:59:29;3.93;;;3.07;;
18228;SDS011;9239;50.932;3.142;2023-04-24T12:02:01;6.00;;;3.80;;
18228;SDS011;9239;50.932;3.142;2023-04-24T12:04:37;4.43;;;3.77;;
18228;SDS011;9239;50.932;3.142;2023-04-24T12:07:07;4.87;;;3.53;;
18228;SDS011;9239;50.932;3.142;2023-04-24T12:09:41;5.77;;;3.50;;
18228;SDS011;9239;50.932;3.142;2023-04-24T12:12:08;4.67;;;3.90;;
18228;SDS011;9239;50.932;3.142;2023-04-24T12:14:42;5.83;;;3.73;;
18228;SDS011;9239;50.932;3.142;2023-04-24T12:17:09;4.80;;;3.40;;
18228;SDS011;9239;50.932;3.142;2023-04-24T12:19:36;3.33;;;3.03;;
18228;SDS011;9239;50.932;3.142;2023-04-24T12:22:05;5.47;;;3.33;;
18228;SDS011;9239;50.932;3.142;2023-04-24T12:24:33;5.73;;;3.00;;
18228;SDS011;9239;50.932;3.142;2023-04-24T12:26:59;3.87;;;3.07;;
18228;SDS011;9239;50.932;3.142;2023-04-24T12:29:27;3.83;;;2.73;;
18228;SDS011;9239;50.932;3.142;2023-04-24T12:31:54;3.73;;;3.00;;
18228;SDS011;9239;50.932;3.142;2023-04-24T12:34:22;5.43;;;2.90;;
18228;SDS011;9239;50.932;3.142;2023-04-24T12:36:50;3.93;;;2.80;;
18228;SDS011;9239;50.932;3.142;2023-04-24T12:39:19;5.70;;;3.47;;
18228;SDS011;9239;50.932;3.142;2023-04-24T12:41:58;5.67;;;3.07;;
18228;SDS011;9239;50.932;3.142;2023-04-24T12:44:29;3.63;;;2.90;;
18228;SDS011;9239;50.932;3.142;2023-04-24T12:46:59;6.63;;;3.47;;
18228;SDS011;9239;50.932;3.142;2023-04-24T12:49:26;4.57;;;3.60;;
18228;SDS011;9239;50.932;3.142;2023-04-24T12:51:54;4.33;;;3.40;;
18228;SDS011;9239;50.932;3.142;2023-04-24T12:54:22;4.93;;;3.23;;
18228;SDS011;9239;50.932;3.142;2023-04-24T12:56:49;4.27;;;3.63;;
18228;SDS011;9239;50.932;3.142;2023-04-24T12:59:16;4.07;;;3.63;;
18228;SDS011;9239;50.932;3.142;2023-04-24T13:01:43;4.90;;;3.80;;
18228;SDS011;9239;50.932;3.142;2023-04-24T13:04:10;3.97;;;3.13;;
18228;SDS011;9239;50.932;3.142;2023-04-24T13:06:37;4.83;;;3.63;;
18228;SDS011;9239;50.932;3.142;2023-04-24T13:09:04;3.80;;;3.43;;
18228;SDS011;9239;50.932;3.142;2023-04-24T13:11:32;3.87;;;3.03;;
18228;SDS011;9239;50.932;3.142;2023-04-24T13:13:59;3.23;;;2.60;;
18228;SDS011;9239;50.932;3.142;2023-04-24T13:16:26;3.93;;;2.63;;
18228;SDS011;9239;50.932;3.142;2023-04-24T13:18:53;2.57;;;2.23;;
18228;SDS011;9239;50.932;3.142;2023-04-24T13:21:20;4.17;;;2.70;;
18228;SDS011;9239;50.932;3.142;2023-04-24T13:23:47;3.00;;;2.70;;
18228;SDS011;9239;50.932;3.142;2023-04-24T13:26:14;2.40;;;2.13;;
18228;SDS011;9239;50.932;3.142;2023-04-24T13:28:42;4.27;;;2.23;;
18228;SDS011;9239;50.932;3.142;2023-04-24T13:31:09;3.60;;;2.90;;
18228;SDS011;9239;50.932;3.142;2023-04-24T13:33:36;2.87;;;2.67;;
18228;SDS011;9239;50.932;3.142;2023-04-24T13:36:03;3.77;;;2.50;;
18228;SDS011;9239;50.932;3.142;2023-04-24T13:38:30;2.80;;;2.10;;
18228;SDS011;9239;50.932;3.142;2023-04-24T13:40:57;4.10;;;2.60;;
18228;SDS011;9239;50.932;3.142;2023-04-24T13:43:24;2.57;;;2.37;;
18228;SDS011;9239;50.932;3.142;2023-04-24T13:45:53;3.80;;;2.70;;
18228;SDS011;9239;50.932;3.142;2023-04-24T13:48:20;4.23;;;3.27;;
18228;SDS011;9239;50.932;3.142;2023-04-24T13:50:47;4.57;;;2.30;;
18228;SDS011;9239;50.932;3.142;2023-04-24T13:53:14;2.77;;;2.40;;
18228;SDS011;9239;50.932;3.142;2023-04-24T13:55:41;4.27;;;2.70;;
18228;SDS011;9239;50.932;3.142;2023-04-24T13:58:08;3.73;;;3.30;;
18228;SDS011;9239;50.932;3.142;2023-04-24T14:00:36;6.20;;;2.70;;
18228;SDS011;9239;50.932;3.142;2023-04-24T14:03:04;3.30;;;2.70;;
18228;SDS011;9239;50.932;3.142;2023-04-24T14:05:31;4.97;;;2.80;;
18228;SDS011;9239;50.932;3.142;2023-04-24T14:07:58;3.83;;;2.60;;
18228;SDS011;9239;50.932;3.142;2023-04-24T14:10:25;5.40;;;2.23;;
18228;SDS011;9239;50.932;3.142;2023-04-24T14:12:52;3.13;;;2.50;;
18228;SDS011;9239;50.932;3.142;2023-04-24T14:15:19;6.53;;;2.67;;
18228;SDS011;9239;50.932;3.142;2023-04-24T14:17:47;4.03;;;2.50;;
18228;SDS011;9239;50.932;3.142;2023-04-24T14:20:16;3.67;;;2.20;;
18228;SDS011;9239;50.932;3.142;2023-04-24T14:22:53;4.20;;;2.30;;
18228;SDS011;9239;50.932;3.142;2023-04-24T14:25:32;4.97;;;2.70;;
18228;SDS011;9239;50.932;3.142;2023-04-24T14:27:59;3.93;;;2.70;;
18228;SDS011;9239;50.932;3.142;2023-04-24T14:30:26;4.13;;;2.53;;
18228;SDS011;9239;50.932;3.142;2023-04-24T14:32:53;3.87;;;2.57;;
18228;SDS011;9239;50.932;3.142;2023-04-24T14:35:22;3.23;;;2.70;;
18228;SDS011;9239;50.932;3.142;2023-04-24T14:37:49;2.87;;;2.53;;
18228;SDS011;9239;50.932;3.142;2023-04-24T14:40:16;6.20;;;2.33;;
18228;SDS011;9239;50.932;3.142;2023-04-24T14:42:43;4.07;;;2.93;;
18228;SDS011;9239;50.932;3.142;2023-04-24T14:45:10;4.77;;;4.37;;
18228;SDS011;9239;50.932;3.142;2023-04-24T14:47:37;2.57;;;2.23;;
18228;SDS011;9239;50.932;3.142;2023-04-24T14:50:05;5.63;;;2.73;;
18228;SDS011;9239;50.932;3.142;2023-04-24T14:52:35;2.60;;;2.20;;
18228;SDS011;9239;50.932;3.142;2023-04-24T14:55:02;2.80;;;2.00;;
18228;SDS011;9239;50.932;3.142;2023-04-24T14:57:30;2.83;;;2.30;;